KMRC

Details ICAO KMRC
Name MAURY CO
Region United States
Timezone America/Chicago (UTC-5.0)
Plans Departing 4
Arriving 6
Stats Elevation 681 ft / 208 m (AMSL)
Location 35.553842° -87.178507°
Runways 2
Magnetic Variation 3.448° W
Sunrise 2018-05-26 10:38:25 UTC / 2018-05-26 05:38:25 Local
Sunset 2018-05-27 00:56:01 UTC / 2018-05-26 19:56:01 Local
Advertisement - Login to hide

Runways

ID Width Length Bearing (true) Bearing (mag) Surface Threshold Offset Overrun Length
06 100 ft / 30 m 6,001 ft / 1,829 m 53.57° 57.02° Asphalt 0 ft / 0 m 0 ft / 0 m
17 200 ft / 61 m 2,005 ft / 611 m 170.06° 173.51° Grass 0 ft / 0 m 0 ft / 0 m
24 100 ft / 30 m 6,001 ft / 1,829 m 233.58° 237.03° Asphalt 0 ft / 0 m 0 ft / 0 m
35 200 ft / 61 m 2,005 ft / 611 m 350.06° 353.51° Grass 0 ft / 0 m 0 ft / 0 m

Approach Navaids

Runway Type Ident Frequency Range Bearing (true) Bearing (mag) Slope Elevation
24 Localiser IMRC 108.70 MHz 18 nm / 33 km 233.57° 237.02° - 681 ft / 208 m (AMSL)

Map

Weather


0- 5 10 15 20 25 30 35+ Temperature / ° C

Clouds and Precipitation
Forecast for 2018-05-26 12:00 UTC. Updated 2 hours ago

Ground ~20,000 ft ~40,000 ft Winds

METAR

KMRC 261235Z AUTO 18003KT 5SM BR BKN007 BKN060 BKN080 21/21 A2993 RMK A01

TAF

Not found

Frequencies

Recorded 128.62 MHz AWOS 3
Unicom 122.80 MHz CTAF/UNICOM
Warning: Do not use this data for real-world aviation or navigation. No guarantee of current accuracy is given.